Time;durP1;ratioP1;P1;durP2;ratioP2;P2;SDS_P1;SDS_P2;PMS_P1;PMS_P2;Temp;Humidity;BMP_temperature;BMP_pressure;BME280_temperature;BME280_humidity;BME280_pressure;Samples;Min_cycle;Max_cycle;Signal;HPM_P1;HPM_P2
2022/03/19 00:00:42;;;;;;;;;89.75;70.25;;;;;6.24;36.21;101635.63;5112099;28;11038;-71
2022/03/19 00:03:12;;;;;;;;;85.00;68.50;;;;;6.30;35.90;101631.56;5093582;28;11022;-74
2022/03/19 00:05:41;;;;;;;;;71.33;56.67;;;;;6.35;35.13;101627.50;5093764;28;10016;-72
2022/03/19 00:08:11;;;;;;;;;91.25;72.75;;;;;6.40;35.68;101626.03;5068616;28;9383;-74
2022/03/19 00:10:39;;;;;;;;;87.75;70.25;;;;;6.43;35.68;101621.88;5068658;28;10432;-72
2022/03/19 00:13:09;;;;;;;;;80.25;62.75;;;;;6.47;35.18;101617.75;5068653;28;10377;-73
2022/03/19 00:15:38;;;;;;;;;99.25;82.75;;;;;6.50;35.56;101615.28;5051902;28;9632;-73
2022/03/19 00:18:07;;;;;;;;;90.75;71.00;;;;;6.51;35.60;101616.22;5068464;28;10781;-72
2022/03/19 00:20:38;;;;;;;;;96.00;75.75;;;;;6.51;35.95;101609.31;5051969;28;10236;-71
2022/03/19 00:23:07;;;;;;;;;99.00;80.00;;;;;6.53;36.21;101612.88;5051664;28;10641;-73
2022/03/19 00:25:38;;;;;;;;;92.00;72.50;;;;;6.54;36.31;101613.75;5051562;28;10856;-73
2022/03/19 00:28:07;;;;;;;;;94.00;78.50;;;;;6.55;36.23;101611.22;5068286;28;10718;-75
2022/03/19 00:30:36;;;;;;;;;95.75;78.75;;;;;6.54;36.21;101603.38;5051468;28;10519;-73
2022/03/19 00:33:05;;;;;;;;;102.00;82.75;;;;;6.55;36.24;101605.16;5068039;28;11001;-73
2022/03/19 00:35:34;;;;;;;;;96.00;77.75;;;;;6.54;36.29;101608.56;5051741;28;11150;-73
2022/03/19 00:38:04;;;;;;;;;104.50;88.50;;;;;6.52;36.08;101610.19;5034939;28;11471;-73
2022/03/19 00:40:34;;;;;;;;;97.00;74.00;;;;;6.50;35.91;101612.69;5068392;28;11241;-75
2022/03/19 00:43:04;;;;;;;;;101.25;85.75;;;;;6.50;36.42;101609.22;5067925;28;10477;-72
2022/03/19 00:45:33;;;;;;;;;100.75;82.25;;;;;6.48;36.63;101603.97;5084344;28;11200;-73
2022/03/19 00:48:01;;;;;;;;;105.00;91.00;;;;;6.47;37.18;101607.38;5093043;28;11264;-72
2022/03/19 00:50:30;;;;;;;;;117.00;105.00;;;;;6.43;37.34;101615.81;5092978;28;11611;-72
2022/03/19 00:52:58;;;;;;;;;96.50;76.75;;;;;6.37;36.38;101607.72;5092956;28;11576;-71
2022/03/19 00:55:27;;;;;;;;;91.75;71.25;;;;;6.34;36.01;101605.88;5092930;28;10778;-74
2022/03/19 00:57:56;;;;;;;;;93.75;73.25;;;;;6.33;36.09;101603.22;5110979;28;10370;-75
2022/03/19 01:00:26;;;;;;;;;84.25;68.25;;;;;6.32;35.92;101602.31;5092871;28;10527;-73
2022/03/19 01:02:57;;;;;;;;;77.50;62.75;;;;;6.32;35.88;101602.31;5058287;28;9878;-74
2022/03/19 01:05:26;;;;;;;;;68.00;56.67;;;;;6.32;35.29;101602.31;5092764;28;9475;-72
2022/03/19 01:07:56;;;;;;;;;83.75;63.25;;;;;6.33;35.26;101598.03;5110876;28;9359;-72
2022/03/19 01:10:27;;;;;;;;;77.75;63.25;;;;;6.32;35.57;101599.75;5092548;28;9689;-72
2022/03/19 01:12:58;;;;;;;;;66.00;53.67;;;;;6.29;35.40;101599.56;5093023;28;9636;-71
2022/03/19 01:15:28;;;;;;;;;80.33;62.33;;;;;6.23;35.75;101589.78;5111108;28;9334;-72
2022/03/19 01:17:57;;;;;;;;;86.50;68.75;;;;;6.23;36.15;101588.91;5110824;28;9408;-71
2022/03/19 01:20:25;;;;;;;;;86.00;67.75;;;;;6.22;36.25;101587.16;5041616;28;9888;-71
2022/03/19 01:22:54;;;;;;;;;85.00;68.25;;;;;6.24;36.51;101590.69;5110614;28;10856;-72
2022/03/19 01:25:23;;;;;;;;;92.00;69.75;;;;;6.22;36.35;101588.03;5092084;28;11301;-74
2022/03/19 01:27:52;;;;;;;;;84.50;66.75;;;;;6.21;36.21;101588.81;5075788;28;10227;-73
2022/03/19 01:30:22;;;;;;;;;87.50;66.75;;;;;6.20;36.17;101589.66;5025884;28;9885;-73
2022/03/19 01:32:52;;;;;;;;;80.33;63.33;;;;;6.20;35.69;101586.16;5075423;28;9823;-74
2022/03/19 01:35:22;;;;;;;;;78.00;63.33;;;;;6.18;36.07;101583.50;5110336;28;10621;-71
2022/03/19 01:37:50;;;;;;;;;70.67;58.33;;;;;6.18;35.68;101582.59;5092147;28;9482;-73
2022/03/19 01:40:20;;;;;;;;;72.67;58.00;;;;;6.17;35.69;101586.91;5075075;28;9009;-73
2022/03/19 01:42:51;;;;;;;;;76.67;62.67;;;;;6.16;35.54;101573.88;5110339;28;9005;-75
2022/03/19 01:45:25;;;;;;;;;67.00;56.33;;;;;6.16;35.50;101574.78;5110197;28;9257;-71
2022/03/19 01:47:56;;;;;;;;;69.00;55.00;;;;;6.16;35.25;101572.19;5075089;27;9937;-73
2022/03/19 01:50:26;;;;;;;;;75.33;57.00;;;;;6.16;35.61;101569.59;5110107;28;8949;-72
2022/03/19 01:52:57;;;;;;;;;63.50;51.00;;;;;6.12;35.14;101567.63;5109941;28;9014;-73
2022/03/19 01:55:27;;;;;;;;;53.00;44.00;;;;;6.14;34.81;101575.50;5066746;28;8883;-72
2022/03/19 01:57:59;;;;;;;;;49.25;43.00;;;;;6.13;35.06;101572.03;5016947;28;8852;-73
2022/03/19 02:00:28;;;;;;;;;52.00;44.25;;;;;6.13;35.02;101574.63;5033406;28;9029;-73
2022/03/19 02:02:59;;;;;;;;;50.00;44.00;;;;;6.11;34.85;101572.78;5066457;28;8844;-73
2022/03/19 02:05:27;;;;;;;;;53.00;44.25;;;;;6.09;35.20;101574.38;5066719;28;8836;-72
2022/03/19 02:07:56;;;;;;;;;43.25;40.50;;;;;6.06;34.78;101572.53;5066456;28;8851;-73
2022/03/19 02:10:26;;;;;;;;;67.50;55.50;;;;;6.05;35.28;101571.63;5066512;28;8835;-72
2022/03/19 02:12:56;;;;;;;;;63.67;53.67;;;;;6.08;35.66;101567.44;5065978;28;8871;-73
2022/03/19 02:15:24;;;;;;;;;72.33;58.00;;;;;6.02;36.31;101570.59;5033137;28;9047;-72
2022/03/19 02:17:53;;;;;;;;;79.50;64.75;;;;;6.02;36.79;101566.28;5033253;28;9151;-71
2022/03/19 02:20:23;;;;;;;;;98.00;74.00;;;;;6.01;37.19;101568.81;5066366;28;9643;-72
2022/03/19 02:25:47;;;;;;;;;95.25;74.50;;;;;5.95;37.83;101568.47;5055043;28;10147;-72
2022/03/19 02:28:16;;;;;;;;;99.50;83.50;;;;;5.91;38.20;101569.13;5091342;28;10316;-72
2022/03/19 02:30:45;;;;;;;;;105.50;90.00;;;;;5.85;38.57;101575.75;5091351;28;10842;-73
2022/03/19 02:33:14;;;;;;;;;97.75;78.75;;;;;5.83;38.68;101568.72;5074161;28;11263;-73
2022/03/19 02:35:43;;;;;;;;;89.75;70.00;;;;;5.81;38.28;101575.53;5109290;28;11059;-73
2022/03/19 02:38:13;;;;;;;;;93.00;73.25;;;;;5.76;38.54;101567.50;5090672;28;10620;-72
2022/03/19 02:40:42;;;;;;;;;89.75;70.50;;;;;5.72;37.75;101575.94;5091139;28;10820;-72
2022/03/19 02:43:12;;;;;;;;;86.25;67.50;;;;;5.69;38.06;101574.88;5108957;28;10384;-72
2022/03/19 02:45:41;;;;;;;;;79.50;64.25;;;;;5.66;37.44;101576.50;5108947;28;10325;-71
2022/03/19 02:48:12;;;;;;;;;82.50;66.50;;;;;5.65;37.80;101577.34;5089778;28;9862;-74
2022/03/19 02:50:41;;;;;;;;;79.50;62.50;;;;;5.63;37.26;101575.47;5108821;28;9731;-71
2022/03/19 02:53:11;;;;;;;;;65.67;56.00;;;;;5.61;37.09;101574.50;5108970;28;9770;-73
2022/03/19 02:55:42;;;;;;;;;59.50;49.50;;;;;5.58;36.48;101570.06;5090795;28;8988;-73
2022/03/19 02:58:11;;;;;;;;;63.50;50.50;;;;;5.57;36.56;101567.38;5090646;28;8850;-74
2022/03/19 03:00:40;;;;;;;;;68.50;56.25;;;;;5.56;36.77;101565.63;5108886;28;8858;-73
2022/03/19 03:03:10;;;;;;;;;67.50;51.50;;;;;5.53;36.53;101568.91;5108782;28;8870;-73
2022/03/19 03:05:39;;;;;;;;;66.75;54.25;;;;;5.53;36.49;101568.91;5090902;28;8950;-73
2022/03/19 03:08:08;;;;;;;;;63.25;48.50;;;;;5.55;36.50;101571.59;5108659;28;8941;-72
2022/03/19 03:10:37;;;;;;;;;63.25;50.00;;;;;5.54;36.44;101565.53;5072816;28;8842;-73
2022/03/19 03:13:07;;;;;;;;;52.00;44.25;;;;;5.56;36.35;101568.22;5056873;28;8909;-72
2022/03/19 03:15:36;;;;;;;;;57.33;46.67;;;;;5.55;36.62;101566.41;5108711;28;8858;-73
2022/03/19 03:18:05;;;;;;;;;59.50;47.25;;;;;5.53;36.44;101562.84;5036002;28;8979;-73
2022/03/19 03:20:34;;;;;;;;;57.25;47.00;;;;;5.53;36.91;101568.03;5052400;28;9718;-71
2022/03/19 03:23:04;;;;;;;;;56.25;48.00;;;;;5.55;36.39;101569.00;5085703;28;8854;-71
2022/03/19 03:25:33;;;;;;;;;58.50;50.25;;;;;5.56;36.75;101563.03;5038357;28;8841;-73
2022/03/19 03:28:03;;;;;;;;;61.25;49.25;;;;;5.53;36.68;101568.91;5073155;28;8861;-73
2022/03/19 03:30:33;;;;;;;;;67.00;52.75;;;;;5.51;37.30;101562.78;5072761;28;8845;-72
2022/03/19 03:33:01;;;;;;;;;64.00;53.33;;;;;5.51;37.67;101567.94;5072938;28;8888;-71
2022/03/19 03:35:30;;;;;;;;;65.33;55.00;;;;;5.51;37.09;101564.47;5089679;28;9016;-71
2022/03/19 03:37:59;;;;;;;;;71.00;56.33;;;;;5.50;37.50;101565.28;5094118;28;9040;-73
2022/03/19 03:40:27;;;;;;;;;79.67;60.67;;;;;5.49;37.67;101566.97;5089435;28;9198;-72
2022/03/19 03:42:56;;;;;;;;;79.67;65.00;;;;;5.46;38.09;101562.53;5072623;28;9374;-72
2022/03/19 03:45:25;;;;;;;;;69.33;57.67;;;;;5.45;37.95;101559.88;5089816;28;9458;-72
2022/03/19 03:47:54;;;;;;;;;75.67;61.00;;;;;5.43;38.06;101551.13;5089856;28;9162;-74
2022/03/19 03:50:23;;;;;;;;;68.00;54.00;;;;;5.43;37.50;101558.91;5076382;28;9398;-74
2022/03/19 03:52:52;;;;;;;;;82.00;66.25;;;;;5.21;38.89;101557.75;5112233;28;9181;-73
2022/03/19 03:55:21;;;;;;;;;78.33;63.67;;;;;5.17;38.16;101568.72;5093691;28;9650;-72
2022/03/19 03:57:50;;;;;;;;;78.00;62.00;;;;;5.14;38.29;101570.25;5043367;28;9200;-73
2022/03/19 04:00:18;;;;;;;;;85.75;67.25;;;;;5.14;38.75;101570.25;5042666;28;9393;-71
2022/03/19 04:02:47;;;;;;;;;87.50;68.25;;;;;5.04;39.05;101568.88;5112269;28;9594;-73
2022/03/19 04:05:17;;;;;;;;;89.75;71.75;;;;;5.05;39.73;101571.56;5093770;28;9911;-73
2022/03/19 04:07:46;;;;;;;;;96.00;74.25;;;;;5.07;39.76;101572.53;5076915;28;10365;-74
2022/03/19 04:10:14;;;;;;;;;94.00;73.50;;;;;5.10;39.94;101574.38;5093675;28;10826;-72
2022/03/19 04:12:43;;;;;;;;;97.50;73.00;;;;;5.15;40.12;101577.22;5076776;28;11220;-73
2022/03/19 04:15:12;;;;;;;;;102.50;87.25;;;;;5.16;40.66;101571.22;5112031;28;10258;-73
2022/03/19 04:17:41;;;;;;;;;98.00;79.50;;;;;5.15;40.59;101572.06;5093443;28;11056;-73
2022/03/19 04:20:12;;;;;;;;;91.25;72.25;;;;;5.15;40.26;101566.88;5092328;28;10635;-73
2022/03/19 04:22:44;;;;;;;;;101.00;75.75;;;;;5.14;40.38;101567.69;5093114;28;10676;-72
2022/03/19 04:25:15;;;;;;;;;95.25;75.75;;;;;5.11;40.51;101570.13;5110454;28;10541;-72
2022/03/19 04:27:46;;;;;;;;;89.50;70.25;;;;;5.06;40.56;101572.44;5093369;28;10437;-74
2022/03/19 04:30:16;;;;;;;;;89.50;72.00;;;;;5.06;40.88;101582.78;5093499;28;10331;-72
2022/03/19 04:32:46;;;;;;;;;89.00;72.50;;;;;5.03;40.57;101580.94;5124444;27;10367;-71
2022/03/19 04:38:07;;;;;;;;;96.00;75.50;;;;;5.02;41.14;101586.00;5131889;27;10553;-73
2022/03/19 04:40:37;;;;;;;;;92.75;73.00;;;;;4.98;41.53;101578.91;5113422;27;11328;-73
2022/03/19 04:43:06;;;;;;;;;89.50;70.00;;;;;4.95;40.49;101586.47;5080190;27;11016;-72
2022/03/19 04:45:35;;;;;;;;;93.75;74.00;;;;;4.94;40.55;101592.47;5131903;27;10602;-72
2022/03/19 04:48:05;;;;;;;;;92.75;72.75;;;;;4.91;40.69;101590.56;5132076;27;10440;-73
2022/03/19 04:50:36;;;;;;;;;96.75;77.00;;;;;4.90;41.30;101599.16;5131397;27;10326;-75
2022/03/19 04:53:08;;;;;;;;;96.00;77.25;;;;;4.90;41.29;101601.75;5126824;27;10549;-73
2022/03/19 04:55:38;;;;;;;;;92.50;71.75;;;;;4.89;40.86;101603.41;5110948;28;10795;-72
2022/03/19 04:58:08;;;;;;;;;91.50;72.50;;;;;4.88;40.95;101603.34;5111139;28;10447;-73
2022/03/19 05:00:38;;;;;;;;;100.25;78.00;;;;;4.90;41.42;101604.31;5111157;28;10367;-71
2022/03/19 05:03:07;;;;;;;;;98.00;78.00;;;;;4.89;40.95;101597.34;5110619;28;10698;-72
2022/03/19 05:05:36;;;;;;;;;91.25;72.00;;;;;4.86;41.13;101592.91;5110879;28;10532;-74
2022/03/19 05:08:07;;;;;;;;;106.00;85.00;;;;;4.88;41.03;101606.81;5092593;28;10483;-72
2022/03/19 05:13:21;;;;;;;;;95.00;74.25;;;;;4.87;41.70;101601.56;5110839;28;10442;-73
2022/03/19 05:15:50;;;;;;;;;84.00;69.00;;;;;4.87;41.58;101604.13;5092294;28;10528;-72
2022/03/19 05:18:19;;;;;;;;;97.50;80.50;;;;;4.88;41.84;101605.94;5092323;28;10208;-72
2022/03/19 05:20:47;;;;;;;;;91.00;71.00;;;;;4.91;41.68;101602.63;5092147;28;11031;-72
2022/03/19 05:23:17;;;;;;;;;92.00;70.75;;;;;4.97;41.55;101603.88;5101649;27;10392;-73
2022/03/19 05:25:46;;;;;;;;;82.75;64.75;;;;;4.99;41.71;101615.19;5112616;27;10137;-72
2022/03/19 05:28:15;;;;;;;;;83.00;66.50;;;;;5.04;41.63;101615.41;5130706;27;9849;-73
2022/03/19 05:30:53;;;;;;;;;75.00;60.00;;;;;5.13;41.03;101617.63;5131071;27;9630;-75
2022/03/19 05:34:29;;;;;;;;;89.75;67.25;;;;;5.15;41.06;101611.72;5130969;27;9292;-72
2022/03/19 05:36:13;;;;;;;;;81.25;63.75;;;;;5.17;40.62;101617.00;5130841;27;9735;-74
2022/03/19 05:38:43;;;;;;;;;80.00;63.33;;;;;5.23;40.35;101609.56;5130855;27;9592;-71
2022/03/19 05:41:12;;;;;;;;;65.00;51.00;;;;;5.29;40.11;101615.06;5093875;28;9394;-71
2022/03/19 05:43:40;;;;;;;;;64.50;52.25;;;;;5.34;39.28;101613.63;5109903;28;9135;-72
2022/03/19 05:46:09;;;;;;;;;72.00;56.00;;;;;5.44;38.66;101602.97;5091672;28;8841;-73
2022/03/19 05:48:37;;;;;;;;;65.25;53.25;;;;;5.56;38.20;101599.25;5109877;28;8990;-73
2022/03/19 05:51:06;;;;;;;;;69.00;54.00;;;;;5.62;37.94;101599.56;5091512;28;8935;-73
2022/03/19 05:53:40;;;;;;;;;64.75;54.00;;;;;5.71;38.17;101597.47;5091464;28;8850;-72
2022/03/19 05:56:10;;;;;;;;;62.50;50.25;;;;;5.84;37.41;101594.72;5091522;28;8872;-72
2022/03/19 05:58:39;;;;;;;;;62.25;51.00;;;;;5.97;37.35;101608.31;5074087;28;9613;-73
2022/03/19 06:01:08;;;;;;;;;65.00;52.50;;;;;6.10;37.38;101607.25;5109710;28;8948;-71
2022/03/19 06:03:37;;;;;;;;;61.50;49.50;;;;;6.23;37.53;101607.03;5109463;28;10073;-72
2022/03/19 06:06:05;;;;;;;;;68.33;56.33;;;;;6.38;37.93;101606.94;5085441;28;8868;-72
2022/03/19 06:08:34;;;;;;;;;76.33;59.67;;;;;6.53;37.70;101599.03;5057035;28;9200;-73
2022/03/19 06:11:02;;;;;;;;;72.67;59.00;;;;;6.69;37.16;101604.16;5109075;28;9199;-73
2022/03/19 06:13:33;;;;;;;;;71.67;57.00;;;;;6.85;37.21;101600.56;5074266;28;9224;-72
2022/03/19 06:16:02;;;;;;;;;68.67;54.67;;;;;7.00;37.00;101596.13;5109333;28;9005;-73
2022/03/19 06:18:30;;;;;;;;;63.00;53.50;;;;;7.16;36.07;101592.50;5065890;28;9168;-72
2022/03/19 06:20:59;;;;;;;;;67.00;56.00;;;;;7.30;36.42;101589.69;5066107;28;8856;-72
2022/03/19 06:23:28;;;;;;;;;69.50;54.50;;;;;7.42;35.86;101587.66;5066248;28;9233;-72
2022/03/19 06:25:57;;;;;;;;;71.00;54.67;;;;;7.53;35.38;101594.22;5078059;28;8867;-73
2022/03/19 06:28:26;;;;;;;;;63.25;52.00;;;;;7.66;35.04;101597.38;5069409;28;9332;-72
2022/03/19 06:30:56;;;;;;;;;60.00;49.75;;;;;7.79;34.19;101594.50;5053182;28;8854;-73
2022/03/19 06:33:25;;;;;;;;;65.50;51.00;;;;;7.92;34.70;101577.69;5085868;28;8862;-72
2022/03/19 06:38:40;;;;;;;;;60.75;46.75;;;;;8.20;33.37;101593.66;5065968;28;9117;-73
2022/03/19 06:41:11;;;;;;;;;52.25;44.25;;;;;8.38;33.98;101587.44;5016372;28;8848;-72
2022/03/19 06:43:39;;;;;;;;;56.00;46.50;;;;;8.48;33.28;101587.03;5048863;28;8851;-72
2022/03/19 06:46:10;;;;;;;;;50.00;42.50;;;;;8.61;32.35;101590.16;5049166;28;8848;-72
2022/03/19 06:48:40;;;;;;;;;52.50;44.75;;;;;8.67;31.58;101591.25;5048774;28;8901;-72
2022/03/19 06:51:09;;;;;;;;;52.75;44.25;;;;;8.80;32.34;101596.97;5072927;28;8923;-73
2022/03/19 06:53:38;;;;;;;;;52.75;44.75;;;;;8.92;31.65;101587.94;5035580;28;8957;-73
2022/03/19 06:56:07;;;;;;;;;56.75;46.00;;;;;9.08;32.60;101597.22;5085682;28;8856;-73
2022/03/19 06:58:36;;;;;;;;;67.67;55.00;;;;;9.21;32.43;101585.56;5085522;28;8885;-72
2022/03/19 07:01:05;;;;;;;;;69.50;54.50;;;;;9.31;32.02;101589.41;5051602;28;9010;-72
2022/03/19 07:03:36;;;;;;;;;65.67;53.67;;;;;9.40;32.08;101584.53;5052116;28;8915;-72
2022/03/19 07:06:05;;;;;;;;;63.00;52.00;;;;;9.50;31.66;101588.38;5085537;28;8956;-73
2022/03/19 07:08:53;;;;;;;;;65.75;51.50;;;;;9.57;31.71;101585.16;5041389;28;8965;-72
2022/03/19 07:11:22;;;;;;;;;64.25;50.75;;;;;9.68;30.97;101586.44;5085605;28;8840;-71
2022/03/19 07:13:51;;;;;;;;;61.75;49.50;;;;;9.77;30.54;101578.03;5099290;28;9708;-74
2022/03/19 07:16:20;;;;;;;;;64.50;52.25;;;;;9.84;30.25;101580.03;5073218;28;8962;-72
2022/03/19 07:18:50;;;;;;;;;65.67;53.67;;;;;9.92;30.85;101575.09;5090352;28;8862;-73
2022/03/19 07:21:18;;;;;;;;;69.00;57.00;;;;;9.88;30.02;101578.44;5090474;28;9063;-70
2022/03/19 07:23:51;;;;;;;;;83.75;64.00;;;;;9.79;30.95;101578.97;5106755;28;9338;-75
2022/03/19 07:26:20;;;;;;;;;78.50;61.75;;;;;9.82;31.23;101584.31;5108655;28;9725;-74
2022/03/19 07:28:49;;;;;;;;;74.50;60.00;;;;;9.79;31.27;101581.59;5108357;28;9541;-74
2022/03/19 07:31:17;;;;;;;;;77.50;61.00;;;;;9.90;31.44;101582.84;5108239;28;9800;-72
2022/03/19 07:33:47;;;;;;;;;78.75;63.50;;;;;9.85;31.76;101583.53;5090182;28;10407;-72
2022/03/19 07:36:18;;;;;;;;;77.50;62.75;;;;;9.97;32.21;101583.09;5090223;28;9964;-72
2022/03/19 07:38:46;;;;;;;;;75.00;58.00;;;;;10.08;32.07;101582.63;5108625;28;9854;-72
2022/03/19 07:44:03;;;;;;;;;57.75;47.25;;;;;10.11;30.80;101582.75;5090016;28;9704;-71
2022/03/19 07:46:34;;;;;;;;;68.67;54.67;;;;;10.18;30.71;101578.59;5038658;28;8903;-73
2022/03/19 07:49:04;;;;;;;;;67.50;52.25;;;;;10.29;30.37;101576.38;5089314;28;9087;-73
2022/03/19 07:51:34;;;;;;;;;67.67;54.33;;;;;10.36;30.86;101569.66;5108177;28;8862;-73
2022/03/19 07:54:05;;;;;;;;;58.67;48.67;;;;;10.43;30.04;101569.03;5089821;28;9087;-72
2022/03/19 07:56:33;;;;;;;;;70.50;55.50;;;;;10.51;30.04;101573.66;5107813;28;8934;-72
2022/03/19 07:59:02;;;;;;;;;66.33;55.33;;;;;10.53;30.32;101568.50;5089475;28;9175;-73
2022/03/19 08:01:30;;;;;;;;;68.33;54.33;;;;;10.56;30.25;101570.31;5108337;28;9091;-72
2022/03/19 08:04:04;;;;;;;;;66.00;53.33;;;;;10.62;30.06;101571.38;5108533;28;8982;-71
2022/03/19 08:06:34;;;;;;;;;64.67;53.33;;;;;10.75;29.67;101571.78;5055812;28;9071;-72
2022/03/19 08:09:05;;;;;;;;;62.00;49.25;;;;;10.77;29.83;101570.97;5064930;28;8913;-74
2022/03/19 08:11:34;;;;;;;;;64.33;51.33;;;;;10.85;29.81;101561.69;5048709;28;10055;-73
2022/03/19 08:14:04;;;;;;;;;63.33;51.33;;;;;10.96;29.88;101561.13;5051808;28;8906;-73
2022/03/19 08:16:32;;;;;;;;;67.00;54.33;;;;;11.03;29.81;101561.34;5068260;28;9031;-73
2022/03/19 08:19:01;;;;;;;;;66.33;53.00;;;;;11.06;29.88;101556.22;5068491;28;9073;-71
2022/03/19 08:21:30;;;;;;;;;63.75;50.50;;;;;11.16;29.37;101561.72;5051215;28;8940;-71
2022/03/19 08:24:00;;;;;;;;;62.75;50.75;;;;;11.28;29.29;101557.72;5067925;28;8836;-73
2022/03/19 08:26:29;;;;;;;;;61.75;50.00;;;;;11.36;29.28;101565.81;5068015;28;8875;-72
2022/03/19 08:28:58;;;;;;;;;60.75;49.75;;;;;11.42;29.18;101559.88;5068140;28;8948;-73
2022/03/19 08:31:27;;;;;;;;;57.00;47.25;;;;;11.45;29.58;101555.59;5067764;28;9609;-73
2022/03/19 08:33:56;;;;;;;;;58.50;46.50;;;;;11.54;29.87;101547.13;5067202;28;8849;-72
2022/03/19 08:36:25;;;;;;;;;58.75;47.25;;;;;11.65;30.08;101544.84;5050829;28;8856;-73
2022/03/19 08:41:41;;;;;;;;;54.50;44.25;;;;;11.84;29.68;101543.59;5088267;28;8846;-72
2022/03/19 08:44:10;;;;;;;;;48.00;42.25;;;;;11.89;29.89;101539.38;5110981;28;8841;-75
2022/03/19 08:46:39;;;;;;;;;51.50;43.00;;;;;12.01;29.83;101538.84;5110574;28;8834;-71
2022/03/19 08:49:07;;;;;;;;;46.00;39.25;;;;;12.12;29.75;101541.72;5110762;28;8858;-73
2022/03/19 08:51:42;;;;;;;;;49.50;42.25;;;;;12.19;30.14;101541.94;5091992;28;8854;-72
2022/03/19 08:54:12;;;;;;;;;53.50;43.50;;;;;12.26;30.66;101533.38;5110473;28;8857;-73
2022/03/19 08:56:42;;;;;;;;;52.50;38.50;;;;;12.32;29.90;101532.63;5092210;28;8898;-70
2022/03/19 08:59:11;;;;;;;;;52.50;41.75;;;;;12.19;29.21;101528.84;5058170;28;8854;-72
2022/03/19 09:01:41;;;;;;;;;56.00;42.75;;;;;11.70;29.97;101536.28;5110426;28;8838;-71
2022/03/19 09:04:11;;;;;;;;;51.25;39.50;;;;;11.06;31.14;101532.72;5110818;28;8842;-73
2022/03/19 09:06:41;;;;;;;;;48.50;41.25;;;;;11.28;31.36;101525.50;5110439;28;8995;-71
2022/03/19 09:09:13;;;;;;;;;41.25;37.75;;;;;11.60;30.51;101523.78;5086156;28;9638;-73
2022/03/19 09:11:43;;;;;;;;;46.25;38.75;;;;;11.80;30.52;101528.69;5110126;28;8870;-72
2022/03/19 09:14:12;;;;;;;;;44.75;40.00;;;;;12.00;29.59;101521.38;5110292;28;8851;-71
2022/03/19 09:16:41;;;;;;;;;45.50;39.50;;;;;12.14;29.46;101511.28;5091718;28;8857;-74
2022/03/19 09:19:09;;;;;;;;;44.25;38.25;;;;;12.26;29.65;101512.44;5110451;28;8962;-71
2022/03/19 09:21:38;;;;;;;;;48.00;39.75;;;;;12.22;29.47;101515.84;5110137;28;8853;-73
2022/03/19 09:24:07;;;;;;;;;43.50;37.50;;;;;12.27;30.21;101506.38;5049664;28;8872;-72
2022/03/19 09:26:35;;;;;;;;;47.25;39.75;;;;;12.33;29.81;101508.25;5067295;28;8947;-73
2022/03/19 09:29:06;;;;;;;;;42.25;36.25;;;;;12.40;30.76;101504.94;5066756;28;8883;-72
2022/03/19 09:31:35;;;;;;;;;42.25;35.75;;;;;12.29;31.04;101509.03;5066991;28;8833;-72
2022/03/19 09:34:03;;;;;;;;;41.50;38.25;;;;;12.25;30.39;101508.06;5066251;28;8830;-73
2022/03/19 09:36:32;;;;;;;;;52.00;41.75;;;;;12.29;30.64;101499.44;5066538;28;8880;-73
2022/03/19 09:39:01;;;;;;;;;49.75;41.50;;;;;12.25;30.96;101515.03;5033395;28;8841;-73
2022/03/19 09:41:29;;;;;;;;;48.75;39.75;;;;;12.27;31.03;101505.50;5066576;28;8865;-72
2022/03/19 09:43:59;;;;;;;;;42.50;37.00;;;;;12.46;30.46;101506.81;5033210;28;8849;-73
2022/03/19 09:46:30;;;;;;;;;55.00;42.00;;;;;12.55;30.19;101500.88;5033068;28;8857;-73
2022/03/19 09:48:59;;;;;;;;;52.00;39.75;;;;;12.50;29.99;101502.53;5066412;28;8841;-74
2022/03/19 09:51:31;;;;;;;;;48.75;40.25;;;;;12.57;29.79;101488.72;5049033;28;8849;-72
2022/03/19 09:54:00;;;;;;;;;48.00;39.00;;;;;12.56;30.06;101494.81;5065964;28;8864;-71
2022/03/19 09:56:34;;;;;;;;;32.75;30.75;;;;;12.60;29.34;101494.03;5025277;28;8894;-73
2022/03/19 09:59:03;;;;;;;;;43.50;38.00;;;;;12.71;29.90;101489.94;5091670;28;8922;-72
2022/03/19 10:01:33;;;;;;;;;47.50;40.25;;;;;12.73;30.11;101485.59;5110003;28;8830;-72
2022/03/19 10:04:04;;;;;;;;;37.50;36.00;;;;;12.77;29.45;101482.19;5091375;28;8834;-71
2022/03/19 10:09:20;;;;;;;;;55.50;43.25;;;;;12.96;30.14;101482.59;5109856;28;8818;-73
2022/03/19 10:11:51;;;;;;;;;47.50;40.75;;;;;12.92;29.31;101475.53;5109279;28;8926;-71
2022/03/19 10:14:23;;;;;;;;;53.25;44.25;;;;;13.01;29.85;101474.00;5108854;28;8826;-71
2022/03/19 10:16:56;;;;;;;;;49.25;42.50;;;;;12.98;29.47;101471.28;5108773;28;9540;-74
2022/03/19 10:19:25;;;;;;;;;46.50;40.00;;;;;12.91;28.55;101477.28;5109051;28;9584;-72
2022/03/19 10:21:55;;;;;;;;;46.75;38.50;;;;;12.98;28.39;101471.28;5109174;28;8857;-72
2022/03/19 10:24:27;;;;;;;;;43.75;37.75;;;;;12.93;28.26;101478.19;5108848;28;8911;-73
2022/03/19 10:26:57;;;;;;;;;45.75;38.00;;;;;13.04;27.78;101478.41;5108884;28;9711;-73
2022/03/19 10:29:33;;;;;;;;;49.50;37.50;;;;;12.97;27.64;101474.78;5108860;28;9587;-72
2022/03/19 10:32:07;;;;;;;;;41.50;37.50;;;;;13.11;27.05;101461.97;5108937;28;8842;-73
2022/03/19 10:34:40;;;;;;;;;38.75;35.50;;;;;12.56;27.28;101469.53;5056993;28;8876;-72
2022/03/19 10:37:09;;;;;;;;;46.25;37.00;;;;;12.67;29.37;101462.78;5072701;28;8862;-74
2022/03/19 10:39:47;;;;;;;;;41.00;35.75;;;;;12.88;28.19;101464.09;5097564;28;8873;-72
2022/03/19 10:42:16;;;;;;;;;44.50;40.00;;;;;13.02;28.08;101459.16;5090734;28;8827;-72
2022/03/19 10:44:48;;;;;;;;;40.75;36.00;;;;;13.01;27.57;101460.03;5108468;28;8958;-74
2022/03/19 10:47:22;;;;;;;;;44.25;38.25;;;;;13.12;27.54;101450.63;5090293;28;8857;-72
2022/03/19 10:49:51;;;;;;;;;47.00;38.50;;;;;13.28;27.22;101449.19;5090006;28;8835;-74
2022/03/19 10:52:21;;;;;;;;;35.00;34.50;;;;;13.43;26.97;101440.75;5108735;28;8967;-72
2022/03/19 10:54:53;;;;;;;;;21.50;20.00;;;;;13.59;26.14;101441.91;5108316;28;8863;-73
2022/03/19 10:57:22;;;;;;;;;45.00;38.00;;;;;13.42;26.80;101442.50;5072172;28;9001;-71
2022/03/19 10:59:50;;;;;;;;;36.00;34.75;;;;;13.48;26.67;101436.50;5108420;28;8868;-73
2022/03/19 11:02:22;;;;;;;;;35.75;32.75;;;;;13.44;26.27;101435.56;5055806;28;8870;-73
2022/03/19 11:04:51;;;;;;;;;34.50;34.50;;;;;13.42;25.94;101441.59;5107847;28;8955;-73
2022/03/19 11:07:23;;;;;;;;;35.25;33.00;;;;;13.47;25.68;101436.47;5089750;28;8862;-71
2022/03/19 11:09:53;;;;;;;;;37.25;33.50;;;;;13.68;25.41;101433.34;5089762;28;8831;-73
2022/03/19 11:12:29;;;;;;;;;40.25;36.00;;;;;13.73;23.65;101429.06;5072376;28;8948;-74
2022/03/19 11:14:59;;;;;;;;;34.25;30.75;;;;;13.82;23.38;101421.34;5107712;28;9014;-71
2022/03/19 11:17:32;;;;;;;;;6.50;3.75;;;;;13.96;23.17;101414.56;5094342;28;8865;-72
2022/03/19 11:20:04;;;;;;;;;33.25;31.75;;;;;14.01;23.76;101410.28;5107514;28;8866;-74
2022/03/19 11:22:39;;;;;;;;;32.75;30.25;;;;;14.20;22.76;101410.56;5088362;28;8856;-73
2022/03/19 11:25:16;;;;;;;;;29.00;26.25;;;;;14.19;20.59;101409.66;5107793;28;8845;-74
2022/03/19 11:27:48;;;;;;;;;27.50;27.50;;;;;14.37;21.36;101400.31;5073916;28;9643;-72
2022/03/19 11:30:21;;;;;;;;;23.75;21.25;;;;;14.47;19.46;101396.06;5107483;28;8841;-71
2022/03/19 11:33:09;;;;;;;;;30.50;27.50;;;;;14.49;18.88;101404.84;5073587;28;8849;-72
2022/03/19 11:35:39;;;;;;;;;22.50;22.50;;;;;14.42;18.63;101393.34;5107915;28;8861;-72
2022/03/19 11:38:11;;;;;;;;;24.50;24.50;;;;;14.35;19.50;101402.91;5057207;28;8906;-73
2022/03/19 11:40:43;;;;;;;;;28.00;25.25;;;;;14.50;18.83;101385.59;5106767;28;8837;-71
2022/03/19 11:43:19;;;;;;;;;28.25;25.00;;;;;14.50;18.90;101390.84;5107864;28;8892;-71
2022/03/19 11:45:56;;;;;;;;;26.25;25.25;;;;;14.65;19.23;101390.19;5108960;28;8962;-72
2022/03/19 11:48:48;;;;;;;;;27.50;24.25;;;;;14.78;18.64;101387.75;5093423;28;8950;-71
2022/03/19 11:51:23;;;;;;;;;27.25;26.75;;;;;14.89;19.38;101387.84;5111579;28;8870;-72